createdAt,value
2019-05-23T00:00:32.494Z,5.05
2019-05-23T00:05:53.208Z,5.03
2019-05-23T00:11:22.288Z,5.40
2019-05-23T00:16:28.480Z,5.12
2019-05-23T00:21:34.920Z,5.15
2019-05-23T00:26:41.377Z,5.60
2019-05-23T00:31:50.692Z,5.37
2019-05-23T00:37:02.645Z,6.10
2019-05-23T00:42:07.899Z,7.05
2019-05-23T00:47:13.657Z,4.87
2019-05-23T00:52:18.059Z,5.15
2019-05-23T00:57:24.557Z,6.05
2019-05-23T01:02:32.161Z,4.60
2019-05-23T01:07:38.444Z,7.05
2019-05-23T01:12:47.589Z,6.87
2019-05-23T01:17:53.766Z,6.92
2019-05-23T01:23:18.617Z,7.85
2019-05-23T01:28:24.283Z,6.90
2019-05-23T01:33:30.898Z,4.10
2019-05-23T01:38:39.046Z,6.12
2019-05-23T01:43:44.089Z,7.03
2019-05-23T01:48:48.805Z,6.90
2019-05-23T01:53:54.836Z,2.50
2019-05-23T01:58:59.134Z,3.15
2019-05-23T02:04:04.328Z,5.78
2019-05-23T02:09:09.206Z,5.95
2019-05-23T02:14:15.051Z,3.62
2019-05-23T02:19:22.036Z,5.53
2019-05-23T02:24:27.743Z,5.55
2019-05-23T02:29:32.307Z,5.03
2019-05-23T02:34:37.786Z,6.53
2019-05-23T02:39:54.413Z,5.20
2019-05-23T02:44:59.492Z,4.47
2019-05-23T02:50:07.433Z,8.50
2019-05-23T02:55:22.523Z,6.60
2019-05-23T03:00:54.825Z,6.95
2019-05-23T03:05:57.594Z,7.95
2019-05-23T03:11:19.005Z,8.23
2019-05-23T03:16:35.267Z,8.18
2019-05-23T03:21:41.521Z,9.10
2019-05-23T03:27:20.505Z,5.67
2019-05-23T03:32:38.009Z,5.90
2019-05-23T03:37:42.454Z,8.03
2019-05-23T03:42:49.895Z,8.33
2019-05-23T03:48:01.292Z,8.33
2019-05-23T03:53:07.664Z,5.58
2019-05-23T03:58:14.009Z,5.97
2019-05-23T04:03:19.403Z,7.92
2019-05-23T04:08:25.858Z,8.93
2019-05-23T04:13:31.427Z,10.75
2019-05-23T04:18:38.769Z,9.93
2019-05-23T04:23:43.068Z,10.20
2019-05-23T04:28:47.673Z,11.00
2019-05-23T04:38:55.257Z,12.13
2019-05-23T04:43:59.569Z,12.50
2019-05-23T04:49:05.480Z,11.78
2019-05-23T04:54:11.557Z,11.38
2019-05-23T04:59:17.110Z,12.75
2019-05-23T05:04:23.179Z,11.95
2019-05-23T05:09:43.313Z,12.07
2019-05-23T05:14:47.672Z,11.55
2019-05-23T05:19:52.203Z,13.05
2019-05-23T05:24:59.148Z,12.53
2019-05-23T05:30:03.928Z,12.85
2019-05-23T05:35:11.502Z,12.82
2019-05-23T05:40:15.925Z,12.03
2019-05-23T05:45:20.586Z,11.33
2019-05-23T05:55:30.738Z,10.93
2019-05-23T06:00:50.115Z,11.38
2019-05-23T06:06:11.983Z,11.63
2019-05-23T06:11:18.781Z,12.30
2019-05-23T06:16:23.286Z,10.95
2019-05-23T06:21:30.801Z,10.50
2019-05-23T06:26:35.821Z,10.32
2019-05-23T06:31:40.812Z,11.20
2019-05-23T06:36:46.496Z,10.48
2019-05-23T06:41:50.817Z,11.18
2019-05-23T06:46:55.219Z,12.30
2019-05-23T06:51:59.293Z,12.05
2019-05-23T06:57:03.922Z,12.53
2019-05-23T07:07:13.051Z,12.23
2019-05-23T07:12:17.387Z,12.10
2019-05-23T07:17:22.309Z,12.40
2019-05-23T07:22:29.347Z,11.70
2019-05-23T07:27:36.188Z,10.63
2019-05-23T07:32:40.366Z,11.12
2019-05-23T07:37:44.547Z,10.25
2019-05-23T07:42:49.319Z,10.88
2019-05-23T07:47:56.728Z,10.72
2019-05-23T07:53:00.885Z,10.38
2019-05-23T07:58:06.972Z,11.30
2019-05-23T08:03:13.749Z,9.83
2019-05-23T08:08:21.962Z,10.28
2019-05-23T08:13:28.618Z,10.08
2019-05-23T08:18:32.743Z,9.93
2019-05-23T08:23:36.871Z,13.40
2019-05-23T08:28:56.645Z,11.65
2019-05-23T08:33:46.905Z,12.68
2019-05-23T08:38:50.990Z,11.93
2019-05-23T08:43:58.294Z,13.03
2019-05-23T08:49:03.465Z,15.32
2019-05-23T08:54:10.705Z,13.50
2019-05-23T08:59:16.084Z,17.70
2019-05-23T09:04:21.377Z,15.65
2019-05-23T09:09:30.454Z,13.72
2019-05-23T09:14:32.143Z,17.42
2019-05-23T09:24:39.456Z,19.37
2019-05-23T09:29:44.070Z,17.87
2019-05-23T09:34:48.634Z,17.32
2019-05-23T09:39:55.543Z,16.87
2019-05-23T09:45:01.286Z,14.78
2019-05-23T09:50:07.155Z,16.73
2019-05-23T09:55:11.936Z,10.85
2019-05-23T10:00:19.516Z,13.05
2019-05-23T10:05:41.008Z,11.75
2019-05-23T10:10:32.403Z,5.47
2019-05-23T10:15:46.347Z,9.18
2019-05-23T10:20:50.676Z,7.50
2019-05-23T10:31:00.075Z,7.90
2019-05-23T10:36:21.705Z,5.10
2019-05-23T10:41:29.162Z,5.03
2019-05-23T10:46:33.296Z,5.25
2019-05-23T10:51:37.628Z,5.40
2019-05-23T11:01:45.681Z,5.00
2019-05-23T11:06:52.255Z,5.40
2019-05-23T11:11:58.146Z,5.50
2019-05-23T11:17:02.666Z,5.08
2019-05-23T11:22:07.887Z,4.53
2019-05-23T11:27:12.047Z,4.90
2019-05-23T11:32:20.438Z,5.00
2019-05-23T11:37:25.778Z,4.00
2019-05-23T11:42:31.637Z,4.55
2019-05-23T11:47:37.640Z,4.92
2019-05-23T11:52:41.938Z,5.03
2019-05-23T11:57:46.462Z,3.52
2019-05-23T12:02:51.034Z,5.40
2019-05-23T12:07:55.216Z,5.50
2019-05-23T12:12:59.727Z,5.95
2019-05-23T12:18:05.347Z,4.67
2019-05-23T12:23:10.982Z,5.40
2019-05-23T12:28:15.462Z,5.65
2019-05-23T12:33:19.705Z,4.75
2019-05-23T12:38:26.250Z,4.53
2019-05-23T12:43:30.781Z,5.03
2019-05-23T12:48:45.287Z,5.78
2019-05-23T12:53:52.222Z,5.70
2019-05-23T12:58:59.144Z,5.58
2019-05-23T13:04:04.649Z,4.92
2019-05-23T13:09:09.940Z,4.22
2019-05-23T13:14:14.940Z,6.40
2019-05-23T13:19:19.176Z,4.83
2019-05-23T13:29:28.799Z,5.67
2019-05-23T13:34:34.564Z,5.62
2019-05-23T13:39:42.076Z,4.30
2019-05-23T13:44:48.875Z,4.67
2019-05-23T13:49:55.395Z,4.70
2019-05-23T13:55:01.201Z,4.50
2019-05-23T14:00:06.536Z,4.80
2019-05-23T14:05:12.548Z,4.08
2019-05-23T14:10:18.581Z,5.03
2019-05-23T14:15:31.860Z,4.97
2019-05-23T14:20:36.408Z,4.43
2019-05-23T14:31:14.535Z,4.20
2019-05-23T14:36:36.683Z,3.70
2019-05-23T14:41:49.542Z,4.00
2019-05-23T14:47:19.491Z,3.77
2019-05-23T14:52:29.307Z,3.70
2019-05-23T14:57:37.819Z,3.60
2019-05-23T15:02:45.140Z,4.15
2019-05-23T15:07:52.970Z,4.05
2019-05-23T15:12:57.992Z,4.53
2019-05-23T15:18:02.216Z,4.53
2019-05-23T15:23:06.378Z,4.75
2019-05-23T15:28:10.937Z,4.47
2019-05-23T15:33:18.395Z,4.33
2019-05-23T15:38:35.509Z,4.28
2019-05-23T15:43:46.596Z,4.70
2019-05-23T15:48:51.290Z,5.15
2019-05-23T15:54:02.174Z,4.62
2019-05-23T15:59:22.973Z,4.95
2019-05-23T16:04:27.696Z,5.10
2019-05-23T16:09:36.043Z,5.40
2019-05-23T16:14:42.613Z,4.78
2019-05-23T16:19:50.649Z,5.03
2019-05-23T16:24:56.376Z,5.83
2019-05-23T16:30:00.826Z,5.37
2019-05-23T16:40:12.262Z,5.75
2019-05-23T16:45:36.584Z,6.37
2019-05-23T16:50:40.754Z,6.62
2019-05-23T16:55:53.775Z,7.28
2019-05-23T17:01:24.068Z,6.87
2019-05-23T17:06:36.578Z,6.67
2019-05-23T17:11:58.567Z,6.17
2019-05-23T17:17:36.442Z,6.80
2019-05-23T17:22:45.813Z,7.05
2019-05-23T17:28:11.794Z,7.40
2019-05-23T17:33:17.999Z,8.10
2019-05-23T17:38:22.777Z,8.53
2019-05-23T17:43:27.151Z,7.60
2019-05-23T17:48:31.652Z,7.70
2019-05-23T17:53:35.788Z,8.08
2019-05-23T17:58:40.540Z,6.75
2019-05-23T18:03:44.901Z,6.67
2019-05-23T18:08:50.155Z,6.42
2019-05-23T18:13:57.129Z,6.28
2019-05-23T18:19:02.605Z,4.62
2019-05-23T18:24:08.482Z,5.62
2019-05-23T18:29:12.657Z,5.08
2019-05-23T18:34:17.763Z,4.65
2019-05-23T18:39:22.805Z,4.50
2019-05-23T18:44:27.518Z,5.15
2019-05-23T18:49:31.732Z,5.53
2019-05-23T18:54:35.914Z,5.50
2019-05-23T18:59:40.313Z,5.37
2019-05-23T19:04:47.494Z,5.62
2019-05-23T19:09:51.328Z,5.17
2019-05-23T19:14:55.327Z,5.15
2019-05-23T19:20:00.379Z,5.75
2019-05-23T19:25:06.749Z,6.12
2019-05-23T19:30:12.136Z,5.42
2019-05-23T19:35:16.252Z,5.35
2019-05-23T19:40:24.153Z,6.15
2019-05-23T19:45:31.797Z,5.90
2019-05-23T19:50:37.766Z,5.80
2019-05-23T19:55:42.499Z,7.00
2019-05-23T20:00:47.981Z,6.05
2019-05-23T20:05:53.311Z,6.83
2019-05-23T20:10:57.315Z,8.45
2019-05-23T20:16:01.835Z,9.10
2019-05-23T20:26:13.087Z,9.10
2019-05-23T20:31:18.418Z,8.95
2019-05-23T20:36:22.583Z,8.23
2019-05-23T20:41:27.713Z,8.75
2019-05-23T20:46:33.598Z,8.88
2019-05-23T20:51:38.500Z,10.03
2019-05-23T20:56:45.651Z,9.75
2019-05-23T21:01:50.929Z,10.68
2019-05-23T21:06:55.075Z,10.15
2019-05-23T21:11:59.309Z,11.05
2019-05-23T21:17:03.790Z,11.10
2019-05-23T21:22:11.334Z,11.38
2019-05-23T21:27:15.813Z,11.53
2019-05-23T21:32:20.056Z,12.37
2019-05-23T21:37:24.172Z,13.05
2019-05-23T21:42:28.285Z,11.53
2019-05-23T21:47:32.462Z,12.13
2019-05-23T21:52:36.906Z,12.30
2019-05-23T21:57:41.331Z,12.18
2019-05-23T22:02:47.200Z,13.43
2019-05-23T22:07:52.349Z,11.28
2019-05-23T22:13:04.386Z,13.00
2019-05-23T22:18:05.987Z,10.80
2019-05-23T22:23:10.084Z,12.10
2019-05-23T22:28:14.160Z,11.73
2019-05-23T22:33:20.582Z,10.82
2019-05-23T22:38:24.805Z,11.53
2019-05-23T22:43:28.977Z,10.50
2019-05-23T22:48:33.047Z,11.60
2019-05-23T22:53:37.309Z,11.48
2019-05-23T22:58:41.399Z,12.58
2019-05-23T23:03:45.649Z,11.97
2019-05-23T23:08:50.128Z,12.98
2019-05-23T23:13:54.298Z,11.03
2019-05-23T23:18:58.541Z,13.15
2019-05-23T23:24:03.147Z,11.20
2019-05-23T23:34:11.744Z,11.60
2019-05-23T23:39:17.641Z,10.55
2019-05-23T23:44:23.009Z,10.03
2019-05-23T23:49:44.856Z,11.00
2019-05-23T23:55:07.869Z,10.80
